Terminal Aerodrome Forecast
Issued by NWS Pendleton, OR

Home | Current Version | Previous Version | Text Only | Print | Product List | Glossary On
Versions: 1 2 3 4 5 6 7 8 9 10 11 12 13 14 15 16 17 18 19 20 21 22 23 24 25 26
000
FTUS46 KPDT 191810 AAB
TAFPDT
TAF AMD
KPDT 191810Z 1918/2018 28016KT P6SM SCT050 BKN070
     FM192200 22008KT P6SM -SHRA BKN050 OVC070
     FM200200 14006KT P6SM SCT060 BKN080
     FM200900 14006KT P6SM -RA BKN035 OVC050=

USA.gov is the U.S. government's official web portal to all federal, state and local government web resources and services.